createdAt,value
2022-11-30T00:01:26.205Z,34.55
2022-11-30T00:03:57.138Z,31.00
2022-11-30T00:06:24.725Z,30.17
2022-11-30T00:08:57.948Z,35.83
2022-11-30T00:11:26.898Z,35.72
2022-11-30T00:13:53.644Z,30.88
2022-11-30T00:16:20.761Z,34.33
2022-11-30T00:18:47.604Z,34.20
2022-11-30T00:21:15.321Z,34.00
2022-11-30T00:23:44.830Z,37.45
2022-11-30T00:26:17.018Z,31.88
2022-11-30T00:28:45.743Z,32.25
2022-11-30T00:31:14.800Z,28.88
2022-11-30T00:33:44.654Z,30.50
2022-11-30T00:36:12.883Z,34.53
2022-11-30T00:38:41.193Z,30.02
2022-11-30T00:41:08.083Z,31.20
2022-11-30T00:43:34.895Z,28.35
2022-11-30T00:46:01.839Z,29.90
2022-11-30T00:48:28.634Z,32.20
2022-11-30T00:50:57.854Z,31.92
2022-11-30T00:53:27.276Z,25.73
2022-11-30T00:55:53.953Z,28.40
2022-11-30T00:58:20.753Z,31.92
2022-11-30T01:00:47.950Z,29.15
2022-11-30T01:03:15.014Z,30.40
2022-11-30T01:05:43.288Z,23.45
2022-11-30T01:08:11.224Z,32.83
2022-11-30T01:10:40.446Z,30.27
2022-11-30T01:13:14.195Z,29.58
2022-11-30T01:15:45.545Z,31.02
2022-11-30T01:18:12.528Z,32.17
2022-11-30T01:20:45.407Z,31.48
2022-11-30T01:23:12.180Z,31.63
2022-11-30T01:25:41.316Z,34.42
2022-11-30T01:28:10.586Z,35.03
2022-11-30T01:30:39.867Z,33.05
2022-11-30T01:33:06.587Z,37.90
2022-11-30T01:35:33.449Z,30.42
2022-11-30T01:38:00.257Z,33.92
2022-11-30T01:40:27.022Z,33.58
2022-11-30T01:42:58.419Z,38.85
2022-11-30T01:45:27.596Z,33.53
2022-11-30T01:47:56.675Z,36.45
2022-11-30T01:50:29.389Z,33.60
2022-11-30T01:52:57.638Z,35.00
2022-11-30T01:55:29.508Z,41.97
2022-11-30T01:58:15.776Z,41.28
2022-11-30T02:00:46.270Z,40.83
2022-11-30T02:03:31.754Z,46.38
2022-11-30T02:05:59.333Z,43.92
2022-11-30T02:08:27.345Z,46.88
2022-11-30T02:10:58.752Z,47.75
2022-11-30T02:14:02.659Z,49.17
2022-11-30T02:16:29.271Z,47.58
2022-11-30T02:19:13.812Z,49.67
2022-11-30T02:21:40.396Z,49.25
2022-11-30T02:24:15.670Z,45.00
2022-11-30T02:26:57.245Z,51.60
2022-11-30T02:30:07.381Z,54.10
2022-11-30T02:35:04.809Z,49.00
2022-11-30T02:37:33.281Z,55.20
2022-11-30T02:39:59.904Z,51.83
2022-11-30T02:42:28.794Z,54.30
2022-11-30T02:44:55.634Z,52.92
2022-11-30T02:47:36.831Z,57.88
2022-11-30T02:50:25.607Z,71.45
2022-11-30T02:52:52.982Z,55.65
2022-11-30T02:55:20.712Z,59.85
2022-11-30T02:57:47.476Z,60.17
2022-11-30T03:00:15.344Z,59.03
2022-11-30T03:02:42.264Z,59.95
2022-11-30T03:05:09.408Z,68.60
2022-11-30T03:07:36.211Z,53.30
2022-11-30T03:10:03.697Z,74.90
2022-11-30T03:12:30.388Z,54.88
2022-11-30T03:14:57.094Z,55.70
2022-11-30T03:17:23.818Z,67.40
2022-11-30T03:19:52.780Z,48.75
2022-11-30T03:22:19.448Z,53.75
2022-11-30T03:24:48.612Z,62.10
2022-11-30T03:27:15.716Z,52.88
2022-11-30T03:29:42.495Z,53.42
2022-11-30T03:32:11.579Z,51.05
2022-11-30T03:34:42.980Z,58.83
2022-11-30T03:37:09.620Z,53.17
2022-11-30T03:39:36.329Z,56.55
2022-11-30T03:42:03.575Z,56.83
2022-11-30T03:44:30.211Z,50.05
2022-11-30T03:46:56.949Z,56.40
2022-11-30T03:49:26.037Z,51.58
2022-11-30T03:51:54.857Z,47.60
2022-11-30T03:54:21.702Z,53.20
2022-11-30T03:56:50.679Z,50.67
2022-11-30T03:59:17.350Z,62.33
2022-11-30T04:01:44.079Z,60.10
2022-11-30T04:04:14.270Z,51.42
2022-11-30T04:06:43.532Z,48.08
2022-11-30T04:09:10.576Z,42.42
2022-11-30T04:11:39.593Z,41.33
2022-11-30T04:14:06.322Z,42.97
2022-11-30T04:16:33.247Z,42.88
2022-11-30T04:19:00.293Z,45.38
2022-11-30T04:21:26.999Z,44.45
2022-11-30T04:23:55.852Z,41.20
2022-11-30T04:26:22.554Z,41.63
2022-11-30T04:28:49.205Z,43.95
2022-11-30T04:31:16.865Z,38.28
2022-11-30T04:33:43.651Z,38.22
2022-11-30T04:36:21.963Z,47.22
2022-11-30T04:38:48.746Z,35.83
2022-11-30T04:41:15.670Z,44.53
2022-11-30T04:43:44.756Z,41.40
2022-11-30T04:46:11.520Z,36.43
2022-11-30T04:48:38.275Z,37.88
2022-11-30T04:51:07.528Z,34.47
2022-11-30T04:53:38.054Z,35.67
2022-11-30T04:56:08.955Z,33.97
2022-11-30T04:58:35.712Z,34.50
2022-11-30T05:01:07.498Z,41.28
2022-11-30T05:03:34.506Z,36.35
2022-11-30T05:06:01.251Z,33.63
2022-11-30T05:08:30.508Z,38.95
2022-11-30T05:10:57.212Z,36.55
2022-11-30T05:13:26.889Z,37.53
2022-11-30T05:15:54.288Z,34.20
2022-11-30T05:18:23.454Z,37.22
2022-11-30T05:20:52.746Z,33.20
2022-11-30T05:23:22.879Z,42.08
2022-11-30T05:25:49.779Z,34.90
2022-11-30T05:28:16.500Z,32.83
2022-11-30T05:30:43.504Z,36.78
2022-11-30T05:33:10.565Z,38.15
2022-11-30T05:35:37.667Z,34.58
2022-11-30T05:38:07.108Z,44.28
2022-11-30T05:40:33.975Z,38.70
2022-11-30T05:43:01.776Z,34.70
2022-11-30T05:45:29.274Z,37.38
2022-11-30T05:47:55.958Z,36.47
2022-11-30T05:50:22.877Z,45.42
2022-11-30T05:52:49.575Z,37.55
2022-11-30T05:55:16.368Z,34.85
2022-11-30T05:57:43.063Z,42.20
2022-11-30T06:00:12.428Z,40.53
2022-11-30T06:02:39.422Z,43.13
2022-11-30T06:05:08.905Z,45.28
2022-11-30T06:07:37.830Z,46.15
2022-11-30T06:10:05.205Z,46.75
2022-11-30T06:12:32.183Z,45.33
2022-11-30T06:14:58.900Z,48.88
2022-11-30T06:17:25.543Z,48.63
2022-11-30T06:19:52.211Z,51.90
2022-11-30T06:22:18.843Z,52.25
2022-11-30T06:24:45.862Z,60.03
2022-11-30T06:27:12.769Z,46.88
2022-11-30T06:29:39.417Z,56.70
2022-11-30T06:32:10.533Z,54.13
2022-11-30T06:34:37.225Z,46.28
2022-11-30T06:37:04.160Z,52.47
2022-11-30T06:40:04.229Z,45.58
2022-11-30T06:42:19.911Z,46.08
2022-11-30T06:44:46.963Z,47.42
2022-11-30T06:47:13.726Z,50.13
2022-11-30T06:49:42.797Z,44.08
2022-11-30T06:52:09.693Z,49.00
2022-11-30T06:54:36.424Z,42.90
2022-11-30T06:57:03.171Z,47.15
2022-11-30T06:59:29.864Z,45.58
2022-11-30T07:01:56.594Z,53.88
2022-11-30T07:04:23.269Z,53.55
2022-11-30T07:06:49.958Z,57.17
2022-11-30T07:09:16.614Z,46.53
2022-11-30T07:11:43.290Z,48.55
2022-11-30T07:14:14.734Z,46.00
2022-11-30T07:16:43.950Z,49.05
2022-11-30T07:19:12.883Z,47.92
2022-11-30T07:21:39.526Z,45.53
2022-11-30T07:24:24.898Z,45.03
2022-11-30T07:26:51.555Z,41.80
2022-11-30T07:29:20.809Z,50.38
2022-11-30T07:31:52.283Z,46.22
2022-11-30T07:34:19.339Z,36.22
2022-11-30T07:36:46.374Z,45.42
2022-11-30T07:39:14.489Z,40.97
2022-11-30T07:41:41.993Z,45.22
2022-11-30T07:44:09.526Z,47.88
2022-11-30T07:46:37.762Z,43.88
2022-11-30T07:49:09.008Z,49.97
2022-11-30T07:51:36.809Z,47.22
2022-11-30T07:54:03.704Z,52.67
2022-11-30T07:56:32.858Z,47.85
2022-11-30T07:59:01.827Z,54.27
2022-11-30T08:01:31.625Z,49.38
2022-11-30T08:06:31.233Z,66.32
2022-11-30T08:09:04.542Z,61.88
2022-11-30T08:11:34.778Z,64.25
2022-11-30T08:14:02.248Z,51.40
2022-11-30T08:16:30.512Z,51.67
2022-11-30T08:18:57.965Z,58.10
2022-11-30T08:21:25.200Z,57.00
2022-11-30T08:23:55.958Z,63.63
2022-11-30T08:26:25.940Z,60.53
2022-11-30T08:31:28.671Z,52.20
2022-11-30T08:34:04.267Z,56.92
2022-11-30T08:36:32.058Z,57.95
2022-11-30T08:39:00.066Z,45.67
2022-11-30T08:41:27.132Z,50.00
2022-11-30T08:43:56.553Z,52.33
2022-11-30T08:49:27.287Z,46.65
2022-11-30T08:54:45.956Z,40.60
2022-11-30T08:57:14.377Z,45.92
2022-11-30T08:59:41.096Z,38.50
2022-11-30T09:02:11.687Z,36.88
2022-11-30T09:04:38.464Z,41.75
2022-11-30T09:07:05.302Z,36.47
2022-11-30T09:09:32.573Z,31.70
2022-11-30T09:12:01.786Z,27.85
2022-11-30T09:14:28.546Z,30.27
2022-11-30T09:16:55.394Z,26.40
2022-11-30T09:19:22.338Z,27.13
2022-11-30T09:21:52.413Z,29.15
2022-11-30T09:24:22.141Z,29.40
2022-11-30T09:26:49.093Z,27.13
2022-11-30T09:29:15.805Z,32.15
2022-11-30T09:31:44.991Z,28.58
2022-11-30T09:34:14.181Z,29.50
2022-11-30T09:36:46.076Z,33.10
2022-11-30T09:39:15.528Z,25.80
2022-11-30T09:42:34.548Z,26.30
2022-11-30T09:45:13.701Z,26.92
2022-11-30T09:47:47.874Z,25.17
2022-11-30T09:50:20.618Z,31.75
2022-11-30T09:52:55.601Z,26.77
2022-11-30T09:55:32.909Z,26.10
2022-11-30T09:58:05.379Z,25.73
2022-11-30T10:00:34.181Z,28.52
2022-11-30T10:03:05.970Z,24.48
2022-11-30T10:06:01.776Z,28.83
2022-11-30T10:08:44.898Z,28.80
2022-11-30T10:11:23.128Z,27.77
2022-11-30T10:13:55.684Z,26.92
2022-11-30T10:16:27.842Z,26.27
2022-11-30T10:19:06.169Z,27.02
2022-11-30T10:21:44.557Z,29.55
2022-11-30T10:24:17.353Z,29.70
2022-11-30T10:26:55.770Z,29.70
2022-11-30T10:29:28.031Z,25.98
2022-11-30T10:31:59.042Z,27.30
2022-11-30T10:34:36.206Z,28.98
2022-11-30T10:37:39.538Z,27.40
2022-11-30T10:40:12.610Z,29.52
2022-11-30T10:42:50.969Z,29.98
2022-11-30T10:45:23.310Z,28.20
2022-11-30T10:48:09.858Z,26.67
2022-11-30T10:50:36.599Z,32.03
2022-11-30T10:53:08.135Z,26.48
2022-11-30T10:55:55.939Z,27.45
2022-11-30T10:58:38.371Z,26.27
2022-11-30T11:01:11.289Z,32.20
2022-11-30T11:03:38.520Z,29.52
2022-11-30T11:06:08.231Z,29.75
2022-11-30T11:08:35.349Z,26.30
2022-11-30T11:11:02.684Z,29.23
2022-11-30T11:13:43.452Z,27.40
2022-11-30T11:16:13.163Z,27.73
2022-11-30T11:18:57.127Z,28.90
2022-11-30T11:21:26.339Z,36.05
2022-11-30T11:23:57.489Z,27.70
2022-11-30T11:26:25.255Z,31.63
2022-11-30T11:28:59.405Z,30.92
2022-11-30T11:31:49.068Z,29.75
2022-11-30T11:34:36.356Z,26.52
2022-11-30T11:37:21.693Z,33.33
2022-11-30T11:40:20.759Z,30.10
2022-11-30T11:42:54.286Z,29.13
2022-11-30T11:45:27.732Z,29.02
2022-11-30T11:48:00.639Z,29.63
2022-11-30T11:53:23.635Z,33.00
2022-11-30T11:55:51.282Z,36.50
2022-11-30T11:58:27.818Z,37.50
2022-11-30T12:01:16.795Z,36.70
2022-11-30T12:03:57.545Z,34.92
2022-11-30T12:06:25.786Z,35.38
2022-11-30T12:09:13.641Z,39.60
2022-11-30T12:11:48.482Z,30.88
2022-11-30T12:14:20.377Z,39.15
2022-11-30T12:17:15.722Z,35.95
2022-11-30T12:20:11.491Z,33.88
2022-11-30T12:23:09.950Z,33.40
2022-11-30T12:25:47.742Z,39.30
2022-11-30T12:28:24.163Z,38.78
2022-11-30T12:31:02.898Z,34.58
2022-11-30T12:33:49.034Z,34.15
2022-11-30T12:36:57.156Z,37.30
2022-11-30T12:39:37.167Z,34.00
2022-11-30T12:45:19.763Z,38.20
2022-11-30T12:48:06.487Z,37.88
2022-11-30T12:50:48.694Z,35.50
2022-11-30T12:53:29.327Z,40.42
2022-11-30T12:56:08.225Z,43.03
2022-11-30T12:58:40.907Z,36.65
2022-11-30T13:01:11.270Z,42.30
2022-11-30T13:03:42.603Z,37.30
2022-11-30T13:06:15.336Z,40.10
2022-11-30T13:08:52.346Z,38.63
2022-11-30T13:11:39.574Z,37.53
2022-11-30T13:14:38.961Z,43.55
2022-11-30T13:17:17.030Z,39.30
2022-11-30T13:20:16.581Z,37.40
2022-11-30T13:22:52.898Z,38.75
2022-11-30T13:29:05.510Z,37.75
2022-11-30T13:32:00.229Z,39.13
2022-11-30T13:34:29.487Z,40.55
2022-11-30T13:37:14.864Z,39.95
2022-11-30T13:39:51.178Z,42.25
2022-11-30T13:42:34.194Z,39.95
2022-11-30T13:45:13.309Z,43.88
2022-11-30T13:47:43.125Z,43.05
2022-11-30T13:50:26.789Z,46.28
2022-11-30T13:53:23.461Z,47.08
2022-11-30T13:56:00.253Z,42.80
2022-11-30T13:58:28.148Z,45.90
2022-11-30T14:01:27.468Z,40.28
2022-11-30T14:04:19.220Z,46.90
2022-11-30T14:06:50.992Z,46.65
2022-11-30T14:09:40.319Z,45.53
2022-11-30T14:12:36.652Z,43.83
2022-11-30T14:15:31.696Z,44.97
2022-11-30T14:17:58.966Z,38.72
2022-11-30T14:20:37.589Z,40.83
2022-11-30T14:23:14.530Z,44.80
2022-11-30T14:25:47.798Z,41.70
2022-11-30T14:28:19.148Z,48.22
2022-11-30T14:30:47.996Z,43.72
2022-11-30T14:33:25.380Z,45.15
2022-11-30T14:35:58.019Z,41.20
2022-11-30T14:38:28.270Z,43.85
2022-11-30T14:40:55.042Z,46.78
2022-11-30T14:43:22.199Z,42.47
2022-11-30T14:46:06.376Z,41.72
2022-11-30T14:48:34.835Z,46.10
2022-11-30T14:51:05.480Z,51.58
2022-11-30T14:53:38.924Z,47.08
2022-11-30T14:56:29.291Z,46.88
2022-11-30T14:59:35.410Z,45.53
2022-11-30T15:02:11.813Z,40.80
2022-11-30T15:04:38.605Z,60.90
2022-11-30T15:07:12.480Z,48.17
2022-11-30T15:09:46.689Z,46.35
2022-11-30T15:12:19.801Z,41.72
2022-11-30T15:15:09.060Z,41.95
2022-11-30T15:17:50.093Z,46.83
2022-11-30T15:20:26.758Z,49.35
2022-11-30T15:23:00.224Z,46.53
2022-11-30T15:25:36.597Z,41.05
2022-11-30T15:28:06.828Z,44.58
2022-11-30T15:30:37.848Z,44.50
2022-11-30T15:33:07.001Z,41.15
2022-11-30T15:35:57.406Z,41.83
2022-11-30T15:38:27.330Z,37.92
2022-11-30T15:41:05.151Z,40.15
2022-11-30T15:43:38.559Z,41.40
2022-11-30T15:46:08.843Z,43.92
2022-11-30T15:48:40.543Z,43.58
2022-11-30T15:51:16.222Z,40.88
2022-11-30T15:53:50.898Z,38.95
2022-11-30T15:56:26.178Z,42.67
2022-11-30T15:59:03.505Z,41.08
2022-11-30T16:01:32.015Z,38.30
2022-11-30T16:04:04.388Z,42.05
2022-11-30T16:06:32.682Z,37.63
2022-11-30T16:09:23.832Z,40.78
2022-11-30T16:11:57.930Z,38.35
2022-11-30T16:14:27.464Z,37.28
2022-11-30T16:16:55.357Z,39.95
2022-11-30T16:19:22.439Z,38.65
2022-11-30T16:21:49.856Z,39.30
2022-11-30T16:24:18.936Z,41.83
2022-11-30T16:26:52.825Z,42.83
2022-11-30T16:29:22.795Z,49.60
2022-11-30T16:34:16.278Z,39.35
2022-11-30T16:36:43.047Z,41.50
2022-11-30T16:39:12.439Z,35.63
2022-11-30T16:41:39.316Z,34.47
2022-11-30T16:44:13.294Z,36.75
2022-11-30T16:46:42.404Z,38.03
2022-11-30T16:49:11.412Z,33.53
2022-11-30T16:51:38.126Z,35.92
2022-11-30T16:54:04.941Z,37.65
2022-11-30T16:56:31.699Z,39.80
2022-11-30T16:58:58.364Z,38.15
2022-11-30T17:01:35.567Z,33.55
2022-11-30T17:04:24.370Z,37.03
2022-11-30T17:07:00.575Z,39.40
2022-11-30T17:09:30.316Z,35.58
2022-11-30T17:11:57.264Z,46.70
2022-11-30T17:14:26.196Z,31.83
2022-11-30T17:16:53.002Z,36.42
2022-11-30T17:19:22.920Z,38.70
2022-11-30T17:21:50.816Z,40.05
2022-11-30T17:24:17.557Z,35.97
2022-11-30T17:26:44.300Z,40.45
2022-11-30T17:29:14.502Z,43.97
2022-11-30T17:31:43.308Z,38.70
2022-11-30T17:34:09.975Z,40.60
2022-11-30T17:36:36.704Z,40.40
2022-11-30T17:39:09.067Z,36.72
2022-11-30T17:41:35.835Z,37.80
2022-11-30T17:44:02.801Z,35.65
2022-11-30T17:46:29.483Z,34.97
2022-11-30T17:48:58.592Z,33.28
2022-11-30T17:51:27.967Z,37.23
2022-11-30T17:53:54.749Z,39.25
2022-11-30T17:56:21.514Z,38.63
2022-11-30T17:58:49.295Z,38.30
2022-11-30T18:01:24.121Z,35.47
2022-11-30T18:03:52.010Z,37.75
2022-11-30T18:06:22.340Z,38.15
2022-11-30T18:08:49.047Z,39.05
2022-11-30T18:11:20.869Z,35.65
2022-11-30T18:13:48.710Z,35.33
2022-11-30T18:16:21.348Z,36.35
2022-11-30T18:18:48.939Z,36.70
2022-11-30T18:21:21.023Z,36.50
2022-11-30T18:23:49.105Z,33.95
2022-11-30T18:26:18.120Z,34.85
2022-11-30T18:28:45.609Z,37.10
2022-11-30T18:31:13.209Z,33.97
2022-11-30T18:33:42.544Z,32.78
2022-11-30T18:36:09.304Z,38.75
2022-11-30T18:38:38.391Z,35.10
2022-11-30T18:41:06.289Z,30.05
2022-11-30T18:43:34.108Z,29.20
2022-11-30T18:46:11.065Z,27.50
2022-11-30T18:48:41.908Z,30.20
2022-11-30T18:51:13.629Z,29.27
2022-11-30T18:53:40.667Z,30.25
2022-11-30T18:56:21.396Z,28.20
2022-11-30T18:58:50.796Z,32.90
2022-11-30T19:01:21.414Z,29.92
2022-11-30T19:04:02.681Z,29.52
2022-11-30T19:06:32.518Z,27.63
2022-11-30T19:09:10.003Z,28.52
2022-11-30T19:11:40.385Z,26.40
2022-11-30T19:14:07.875Z,26.45
2022-11-30T19:16:35.378Z,28.45
2022-11-30T19:19:05.842Z,23.50
2022-11-30T19:21:32.710Z,27.52
2022-11-30T19:23:59.622Z,22.27
2022-11-30T19:26:28.440Z,24.55
2022-11-30T19:28:56.357Z,20.70
2022-11-30T19:31:24.146Z,22.15
2022-11-30T19:33:53.639Z,23.98
2022-11-30T19:36:28.926Z,25.77
2022-11-30T19:38:58.054Z,23.13
2022-11-30T19:41:24.847Z,23.87
2022-11-30T19:44:03.173Z,23.75
2022-11-30T19:46:32.936Z,21.10
2022-11-30T19:49:01.763Z,20.23
2022-11-30T19:51:29.935Z,20.10
2022-11-30T19:54:01.914Z,20.88
2022-11-30T19:56:31.160Z,18.33
2022-11-30T19:59:04.173Z,19.52
2022-11-30T20:01:31.758Z,20.13
2022-11-30T20:03:58.966Z,19.65
2022-11-30T20:06:28.702Z,19.65
2022-11-30T20:08:55.929Z,19.77
2022-11-30T20:11:25.423Z,18.23
2022-11-30T20:13:54.461Z,19.67
2022-11-30T20:16:25.833Z,16.73
2022-11-30T20:19:01.825Z,17.70
2022-11-30T20:21:33.565Z,17.77
2022-11-30T20:24:06.243Z,18.00
2022-11-30T20:26:43.799Z,19.40
2022-11-30T20:29:17.747Z,17.90
2022-11-30T20:31:46.614Z,19.30
2022-11-30T20:34:13.588Z,17.25
2022-11-30T20:36:40.399Z,16.67
2022-11-30T20:39:07.860Z,17.45
2022-11-30T20:41:37.027Z,15.55
2022-11-30T20:44:06.545Z,19.53
2022-11-30T20:46:35.499Z,19.33
2022-11-30T20:49:10.774Z,18.02
2022-11-30T20:51:37.489Z,15.77
2022-11-30T20:54:07.334Z,14.88
2022-11-30T20:56:36.583Z,13.32
2022-11-30T20:59:06.177Z,17.27
2022-11-30T21:01:33.484Z,15.32
2022-11-30T21:04:00.886Z,18.05
2022-11-30T21:06:29.596Z,14.07
2022-11-30T21:08:59.552Z,15.30
2022-11-30T21:13:59.014Z,14.30
2022-11-30T21:16:29.792Z,15.52
2022-11-30T21:19:03.322Z,16.50
2022-11-30T21:21:32.925Z,16.77
2022-11-30T21:24:05.190Z,18.00
2022-11-30T21:26:40.300Z,15.15
2022-11-30T21:29:12.596Z,18.42
2022-11-30T21:31:44.805Z,15.35
2022-11-30T21:34:12.080Z,13.75
2022-11-30T21:36:41.275Z,17.15
2022-11-30T21:39:08.880Z,14.60
2022-11-30T21:41:41.170Z,16.75
2022-11-30T21:44:12.015Z,12.85
2022-11-30T21:46:38.889Z,12.68
2022-11-30T21:49:06.300Z,12.85
2022-11-30T21:51:33.137Z,13.38
2022-11-30T21:54:03.245Z,12.90
2022-11-30T21:56:32.769Z,13.32
2022-11-30T21:59:03.419Z,11.32
2022-11-30T22:01:36.255Z,15.60
2022-11-30T22:04:04.710Z,12.55
2022-11-30T22:06:35.273Z,13.95
2022-11-30T22:09:07.871Z,14.52
2022-11-30T22:11:36.728Z,15.48
2022-11-30T22:14:03.959Z,15.70
2022-11-30T22:16:35.970Z,15.00
2022-11-30T22:19:03.990Z,14.13
2022-11-30T22:21:31.071Z,10.50
2022-11-30T22:24:00.246Z,13.75
2022-11-30T22:26:34.744Z,13.53
2022-11-30T22:29:07.096Z,14.50
2022-11-30T22:31:38.971Z,14.63
2022-11-30T22:34:06.112Z,12.75
2022-11-30T22:36:35.027Z,14.18
2022-11-30T22:39:11.474Z,11.77
2022-11-30T22:41:42.724Z,13.20
2022-11-30T22:44:17.042Z,14.43
2022-11-30T22:46:44.612Z,13.60
2022-11-30T22:49:19.874Z,15.00
2022-11-30T22:51:47.254Z,13.20
2022-11-30T22:54:14.107Z,11.48
2022-11-30T22:56:46.192Z,13.68
2022-11-30T22:59:15.956Z,14.25
2022-11-30T23:01:45.587Z,11.60
2022-11-30T23:04:16.856Z,12.38
2022-11-30T23:06:44.295Z,12.95
2022-11-30T23:09:13.123Z,11.13
2022-11-30T23:11:44.879Z,13.55
2022-11-30T23:14:12.304Z,16.42
2022-11-30T23:16:39.941Z,14.38
2022-11-30T23:19:07.432Z,12.65
2022-11-30T23:21:40.965Z,16.30
2022-11-30T23:24:14.516Z,13.57
2022-11-30T23:26:41.515Z,14.20
2022-11-30T23:29:11.968Z,13.38
2022-11-30T23:31:40.303Z,14.07
2022-11-30T23:34:09.925Z,12.25
2022-11-30T23:36:41.831Z,11.73
2022-11-30T23:39:15.705Z,12.05
2022-11-30T23:41:43.212Z,10.43
2022-11-30T23:44:11.161Z,11.73
2022-11-30T23:46:38.729Z,11.35
2022-11-30T23:49:05.953Z,11.90
2022-11-30T23:51:32.602Z,10.75
2022-11-30T23:53:59.409Z,12.50
2022-11-30T23:56:26.073Z,12.68
2022-11-30T23:58:53.244Z,13.40
